createdAt,value
2016-11-02T00:00:31.723Z,58.8
2016-11-02T00:01:31.738Z,58.51
2016-11-02T00:02:31.760Z,58.51
2016-11-02T00:03:32.132Z,58.42
2016-11-02T00:04:32.112Z,58.42
2016-11-02T00:05:32.133Z,58.42
2016-11-02T00:06:32.152Z,58.14
2016-11-02T00:07:31.854Z,58.42
2016-11-02T00:08:32.189Z,58.33
2016-11-02T00:09:31.892Z,58.51
2016-11-02T00:10:32.232Z,58.42
2016-11-02T00:11:31.933Z,58.7
2016-11-02T00:12:31.952Z,58.9
2016-11-02T00:13:31.969Z,58.8
2016-11-02T00:14:31.989Z,58.7
2016-11-02T00:15:32.326Z,58.9
2016-11-02T00:16:32.340Z,58.99
2016-11-02T00:17:32.047Z,58.23
2016-11-02T00:18:32.062Z,58.14
2016-11-02T00:19:32.096Z,58.04
2016-11-02T00:20:32.109Z,58.14
2016-11-02T00:21:32.440Z,57.75
2016-11-02T00:22:32.141Z,57.56
2016-11-02T00:23:32.161Z,57.85
2016-11-02T00:24:32.497Z,57.56
2016-11-02T00:25:32.513Z,57.56
2016-11-02T00:26:32.573Z,57.65
2016-11-02T00:27:32.553Z,57.65
2016-11-02T00:28:32.259Z,57.56
2016-11-02T00:29:32.275Z,58.04
2016-11-02T00:30:32.295Z,57.65
2016-11-02T00:31:32.311Z,57.56
2016-11-02T00:32:32.335Z,57.37
2016-11-02T00:33:32.352Z,57.75
2016-11-02T00:34:32.695Z,57.18
2016-11-02T00:35:32.705Z,57.56
2016-11-02T00:36:32.410Z,57.56
2016-11-02T00:37:32.755Z,57.46
2016-11-02T00:38:32.449Z,57.56
2016-11-02T00:39:32.784Z,57.85
2016-11-02T00:40:32.800Z,57.94
2016-11-02T00:41:32.821Z,57.28
2016-11-02T00:42:32.841Z,57.18
2016-11-02T00:43:32.856Z,58.04
2016-11-02T00:44:32.563Z,58.23
2016-11-02T00:45:32.583Z,58.14
2016-11-02T00:46:32.599Z,58.23
2016-11-02T00:47:32.619Z,58.33
2016-11-02T00:48:32.950Z,58.42
2016-11-02T00:49:32.972Z,58.33
2016-11-02T00:50:32.678Z,58.42
2016-11-02T00:51:32.694Z,58.42
2016-11-02T00:52:33.029Z,58.51
2016-11-02T00:53:32.734Z,58.14
2016-11-02T00:54:33.068Z,58.23
2016-11-02T00:55:32.770Z,58.33
2016-11-02T00:56:33.105Z,58.14
2016-11-02T00:57:32.810Z,58.33
2016-11-02T00:58:33.141Z,58.33
2016-11-02T00:59:32.848Z,58.23
2016-11-02T01:00:32.869Z,58.23
2016-11-02T01:01:32.890Z,58.33
2016-11-02T01:02:33.216Z,58.51
2016-11-02T01:03:33.238Z,58.9
2016-11-02T01:04:32.939Z,59.09
2016-11-02T01:05:32.958Z,58.99
2016-11-02T01:06:33.296Z,58.97
2016-11-02T01:07:32.996Z,59.19
2016-11-02T01:08:33.019Z,59.53
2016-11-02T01:09:33.352Z,59.34
2016-11-02T01:10:33.052Z,59.53
2016-11-02T01:11:33.389Z,59.63
2016-11-02T01:12:33.091Z,59.73
2016-11-02T01:13:33.108Z,59.53
2016-11-02T01:14:33.442Z,59.44
2016-11-02T01:15:33.148Z,60.11
2016-11-02T01:16:33.166Z,59.92
2016-11-02T01:17:33.503Z,60.3
2016-11-02T01:18:33.208Z,60.58
2016-11-02T01:19:33.539Z,60.49
2016-11-02T01:20:33.262Z,60.68
2016-11-02T01:21:33.578Z,60.68
2016-11-02T01:22:33.284Z,60.49
2016-11-02T01:23:33.619Z,60.49
2016-11-02T01:24:33.318Z,60.21
2016-11-02T01:25:33.653Z,60.78
2016-11-02T01:26:33.359Z,60.78
2016-11-02T01:27:33.413Z,60.87
2016-11-02T01:28:33.420Z,61.25
2016-11-02T01:29:33.416Z,61.44
2016-11-02T01:30:33.439Z,61.44
2016-11-02T01:31:33.453Z,61.16
2016-11-02T01:32:33.472Z,61.73
2016-11-02T01:33:33.815Z,61.66
2016-11-02T01:34:33.850Z,61.44
2016-11-02T01:35:33.848Z,61.44
2016-11-02T01:36:33.870Z,61.66
2016-11-02T01:37:33.571Z,61.16
2016-11-02T01:38:33.589Z,61.73
2016-11-02T01:39:33.606Z,62.15
2016-11-02T01:40:33.625Z,61.73
2016-11-02T01:41:33.645Z,62.11
2016-11-02T01:42:33.675Z,62.15
2016-11-02T01:43:33.702Z,62.24
2016-11-02T01:44:34.016Z,62.15
2016-11-02T01:45:33.723Z,62.59
2016-11-02T01:46:34.053Z,62.88
2016-11-02T01:47:34.077Z,62.78
2016-11-02T01:48:34.094Z,63.54
2016-11-02T01:49:33.815Z,63.07
2016-11-02T01:50:34.131Z,63.45
2016-11-02T01:51:34.156Z,64.12
2016-11-02T01:52:33.856Z,64.02
2016-11-02T01:53:34.190Z,63.67
2016-11-02T01:54:33.893Z,63.76
2016-11-02T01:55:33.914Z,64.25
2016-11-02T01:56:33.934Z,64.88
2016-11-02T01:57:34.324Z,64.43
2016-11-02T01:58:34.288Z,64.81
2016-11-02T01:59:33.992Z,64.62
2016-11-02T02:00:34.348Z,64.81
2016-11-02T02:01:34.345Z,65.07
2016-11-02T02:02:34.048Z,65.17
2016-11-02T02:03:34.069Z,64.91
2016-11-02T02:04:34.098Z,65.58
2016-11-02T02:05:34.421Z,65.67
2016-11-02T02:06:34.440Z,65.2
2016-11-02T02:07:34.464Z,65.39
2016-11-02T02:08:34.162Z,65.77
2016-11-02T02:09:34.497Z,66.06
2016-11-02T02:10:34.523Z,65.87
2016-11-02T02:11:34.221Z,66.06
2016-11-02T02:12:34.256Z,66.06
2016-11-02T02:13:34.266Z,66.15
2016-11-02T02:14:34.283Z,66.25
2016-11-02T02:15:34.298Z,66.25
2016-11-02T02:16:34.317Z,65.77
2016-11-02T02:17:34.341Z,65.96
2016-11-02T02:18:34.360Z,66.25
2016-11-02T02:19:34.380Z,65.96
2016-11-02T02:20:34.405Z,66.35
2016-11-02T02:21:34.414Z,66.35
2016-11-02T02:22:34.440Z,66.06
2016-11-02T02:23:34.788Z,66.53
2016-11-02T02:24:34.791Z,66.92
2016-11-02T02:25:34.497Z,66.63
2016-11-02T02:26:34.513Z,66.09
2016-11-02T02:27:34.541Z,66.63
2016-11-02T02:28:34.869Z,66.82
2016-11-02T02:29:34.888Z,66.38
2016-11-02T02:30:34.592Z,66.19
2016-11-02T02:31:34.927Z,66.09
2016-11-02T02:32:34.631Z,66.09
2016-11-02T02:33:34.652Z,66.09
2016-11-02T02:34:34.679Z,66.09
2016-11-02T02:35:34.692Z,66.09
2016-11-02T02:36:34.711Z,66.09
2016-11-02T02:37:34.729Z,66.19
2016-11-02T02:38:34.749Z,66.28
2016-11-02T02:39:34.806Z,65.8
2016-11-02T02:40:34.787Z,66.09
2016-11-02T02:41:35.121Z,66.09
2016-11-02T02:42:34.827Z,66.09
2016-11-02T02:43:34.844Z,66.28
2016-11-02T02:44:35.186Z,65.9
2016-11-02T02:45:35.203Z,66.56
2016-11-02T02:46:35.232Z,66.95
2016-11-02T02:47:34.957Z,66.56
2016-11-02T02:48:34.944Z,66.85
2016-11-02T02:49:35.284Z,66.38
2016-11-02T02:50:35.303Z,66.76
2016-11-02T02:51:35.009Z,66.09
2016-11-02T02:52:35.024Z,66.85
2016-11-02T02:53:35.368Z,66
2016-11-02T02:54:35.384Z,66.56
2016-11-02T02:55:35.085Z,66.38
2016-11-02T02:56:35.105Z,66.95
2016-11-02T02:57:35.131Z,66.47
2016-11-02T02:58:35.143Z,66.76
2016-11-02T02:59:35.478Z,66.66
2016-11-02T03:00:35.502Z,66.19
2016-11-02T03:01:35.531Z,66.76
2016-11-02T03:02:35.545Z,66.28
2016-11-02T03:03:35.580Z,66.28
2016-11-02T03:04:35.582Z,66.13
2016-11-02T03:05:35.284Z,66.47
2016-11-02T03:06:35.331Z,66.09
2016-11-02T03:07:35.641Z,66.03
2016-11-02T03:08:35.346Z,65.71
2016-11-02T03:09:35.682Z,66
2016-11-02T03:10:35.697Z,65.8
2016-11-02T03:11:35.764Z,65.9
2016-11-02T03:12:35.447Z,65.9
2016-11-02T03:13:35.760Z,65.93
2016-11-02T03:14:35.463Z,65.74
2016-11-02T03:15:35.801Z,65.55
2016-11-02T03:16:35.502Z,65.84
2016-11-02T03:17:35.521Z,65.36
2016-11-02T03:18:35.860Z,65.74
2016-11-02T03:19:35.564Z,65.84
2016-11-02T03:20:35.604Z,65.17
2016-11-02T03:21:35.935Z,65.36
2016-11-02T03:22:35.628Z,65.84
2016-11-02T03:23:35.643Z,64.88
2016-11-02T03:24:35.975Z,65.74
2016-11-02T03:25:35.995Z,65.45
2016-11-02T03:26:36.050Z,65.45
2016-11-02T03:27:36.045Z,64.98
2016-11-02T03:28:35.742Z,65.26
2016-11-02T03:29:35.805Z,65.26
2016-11-02T03:30:35.783Z,64.78
2016-11-02T03:31:36.135Z,64.88
2016-11-02T03:32:36.141Z,64.4
2016-11-02T03:33:35.849Z,64.69
2016-11-02T03:34:36.180Z,64.78
2016-11-02T03:35:35.886Z,64.98
2016-11-02T03:36:35.910Z,64.78
2016-11-02T03:37:36.236Z,64.88
2016-11-02T03:38:36.260Z,64.88
2016-11-02T03:39:35.963Z,64.59
2016-11-02T03:40:36.300Z,64.78
2016-11-02T03:41:36.004Z,64.59
2016-11-02T03:42:36.343Z,64.69
2016-11-02T03:43:36.049Z,65.36
2016-11-02T03:44:36.381Z,65.36
2016-11-02T03:45:36.086Z,65.84
2016-11-02T03:46:36.107Z,65.74
2016-11-02T03:47:36.441Z,65.26
2016-11-02T03:48:36.463Z,65.17
2016-11-02T03:49:36.482Z,64.78
2016-11-02T03:50:36.190Z,64.69
2016-11-02T03:51:36.203Z,64.59
2016-11-02T03:52:36.540Z,64.88
2016-11-02T03:53:36.245Z,65.26
2016-11-02T03:54:36.265Z,65.36
2016-11-02T03:55:36.285Z,65.36
2016-11-02T03:56:36.622Z,64.98
2016-11-02T03:57:36.323Z,65.07
2016-11-02T03:58:36.344Z,64.78
2016-11-02T03:59:36.681Z,65.26
2016-11-02T04:00:36.387Z,64.78
2016-11-02T04:01:36.403Z,64.69
2016-11-02T04:02:36.429Z,64.78
2016-11-02T04:03:36.443Z,64.78
2016-11-02T04:04:36.781Z,64.69
2016-11-02T04:05:36.485Z,64.78
2016-11-02T04:06:36.821Z,64.59
2016-11-02T04:07:36.841Z,64.98
2016-11-02T04:08:36.862Z,65.36
2016-11-02T04:09:36.882Z,65.45
2016-11-02T04:10:36.905Z,64.78
2016-11-02T04:11:36.605Z,64.88
2016-11-02T04:12:36.623Z,64.98
2016-11-02T04:13:36.665Z,64.88
2016-11-02T04:14:36.676Z,64.69
2016-11-02T04:15:36.999Z,64.78
2016-11-02T04:16:36.704Z,64.59
2016-11-02T04:17:37.044Z,64.88
2016-11-02T04:18:36.747Z,64.98
2016-11-02T04:19:37.083Z,64.78
2016-11-02T04:20:36.802Z,65.07
2016-11-02T04:21:37.124Z,64.59
2016-11-02T04:22:36.833Z,64.31
2016-11-02T04:23:37.167Z,64.98
2016-11-02T04:24:36.870Z,64.69
2016-11-02T04:25:37.203Z,64.69
2016-11-02T04:26:36.907Z,64.62
2016-11-02T04:27:36.927Z,64.31
2016-11-02T04:28:36.949Z,64.69
2016-11-02T04:29:37.283Z,64.4
2016-11-02T04:30:36.989Z,64.4
2016-11-02T04:31:37.327Z,64.78
2016-11-02T04:32:37.027Z,64.88
2016-11-02T04:33:37.365Z,64.53
2016-11-02T04:34:37.069Z,64.4
2016-11-02T04:35:37.091Z,64.69
2016-11-02T04:36:37.108Z,64.59
2016-11-02T04:37:37.129Z,64.5
2016-11-02T04:38:37.149Z,64.4
2016-11-02T04:39:37.171Z,64.5
2016-11-02T04:40:37.189Z,64.98
2016-11-02T04:41:37.209Z,64.88
2016-11-02T04:42:37.230Z,64.78
2016-11-02T04:43:37.568Z,64.69
2016-11-02T04:44:37.585Z,65.17
2016-11-02T04:45:37.298Z,65.55
2016-11-02T04:46:37.625Z,66.03
2016-11-02T04:47:37.327Z,65.45
2016-11-02T04:48:37.664Z,65.93
2016-11-02T04:49:37.686Z,65.93
2016-11-02T04:50:37.388Z,65.45
2016-11-02T04:51:37.441Z,65.55
2016-11-02T04:52:38.266Z,66.03
2016-11-02T04:53:37.767Z,65.74
2016-11-02T04:54:37.468Z,65.74
2016-11-02T04:55:37.805Z,65.36
2016-11-02T04:56:37.823Z,65.64
2016-11-02T04:57:37.530Z,65.84
2016-11-02T04:58:37.571Z,65.07
2016-11-02T04:59:37.579Z,65.55
2016-11-02T05:00:37.586Z,65.17
2016-11-02T05:01:37.642Z,65.64
2016-11-02T05:02:37.627Z,65.07
2016-11-02T05:03:37.646Z,64.69
2016-11-02T05:04:37.982Z,64.98
2016-11-02T05:05:37.688Z,64.69
2016-11-02T05:06:37.729Z,65.36
2016-11-02T05:07:37.735Z,65.26
2016-11-02T05:08:37.749Z,65.17
2016-11-02T05:09:38.100Z,65.36
2016-11-02T05:10:37.787Z,64.69
2016-11-02T05:11:37.809Z,64.98
2016-11-02T05:12:37.829Z,64.31
2016-11-02T05:13:37.849Z,64.4
2016-11-02T05:14:38.181Z,64.31
2016-11-02T05:15:37.953Z,64.78
2016-11-02T05:16:38.222Z,64.98
2016-11-02T05:17:37.927Z,64.78
2016-11-02T05:18:37.947Z,64.59
2016-11-02T05:19:37.987Z,64.78
2016-11-02T05:20:37.990Z,64.78
2016-11-02T05:21:38.331Z,64.4
2016-11-02T05:22:38.033Z,64.31
2016-11-02T05:23:38.047Z,64.53
2016-11-02T05:24:38.397Z,64.43
2016-11-02T05:25:38.092Z,64.62
2016-11-02T05:26:38.109Z,64.5
2016-11-02T05:27:38.127Z,64.88
2016-11-02T05:28:38.148Z,65.17
2016-11-02T05:29:38.167Z,64.78
2016-11-02T05:30:38.185Z,64.78
2016-11-02T05:31:38.521Z,64.98
2016-11-02T05:32:38.545Z,65.17
2016-11-02T05:33:38.562Z,65.26
2016-11-02T05:34:38.270Z,65.26
2016-11-02T05:35:38.605Z,65.26
2016-11-02T05:36:38.630Z,65.17
2016-11-02T05:37:38.326Z,65.07
2016-11-02T05:38:38.663Z,64.5
2016-11-02T05:39:38.687Z,64.59
2016-11-02T05:40:38.704Z,64.72
2016-11-02T05:41:38.410Z,64.91
2016-11-02T05:42:38.430Z,65.01
2016-11-02T05:43:38.763Z,64.72
2016-11-02T05:44:38.784Z,64.59
2016-11-02T05:45:38.488Z,64.72
2016-11-02T05:46:38.822Z,65.48
2016-11-02T05:47:38.528Z,65.48
2016-11-02T05:48:38.863Z,64.72
2016-11-02T05:49:38.882Z,65.39
2016-11-02T05:50:38.904Z,65.39
2016-11-02T05:51:38.614Z,65.48
2016-11-02T05:52:38.948Z,65.01
2016-11-02T05:53:38.649Z,65.48
2016-11-02T05:54:38.988Z,65.58
2016-11-02T05:55:39.005Z,65.3
2016-11-02T05:56:38.712Z,65.07
2016-11-02T05:57:38.747Z,65.48
2016-11-02T05:58:38.749Z,65.39
2016-11-02T05:59:38.788Z,65.64
2016-11-02T06:00:38.800Z,65.74
2016-11-02T06:01:39.126Z,65.77
2016-11-02T06:02:39.161Z,65.48
2016-11-02T06:03:39.166Z,65.87
2016-11-02T06:04:39.186Z,65.87
2016-11-02T06:05:39.205Z,65.68
2016-11-02T06:06:39.229Z,65.97
2016-11-02T06:07:38.938Z,65.77
2016-11-02T06:08:39.272Z,65.97
2016-11-02T06:09:39.287Z,65.77
2016-11-02T06:10:39.000Z,65.48
2016-11-02T06:11:39.013Z,65.11
2016-11-02T06:12:39.348Z,65.87
2016-11-02T06:13:39.373Z,65.68
2016-11-02T06:14:39.073Z,66.25
2016-11-02T06:15:39.406Z,66.06
2016-11-02T06:16:39.432Z,65.2
2016-11-02T06:17:39.134Z,65.39
2016-11-02T06:18:39.152Z,65.11
2016-11-02T06:19:39.235Z,65.97
2016-11-02T06:20:39.192Z,65.97
2016-11-02T06:21:39.531Z,66.83
2016-11-02T06:22:39.550Z,66.06
2016-11-02T06:23:39.252Z,65.97
2016-11-02T06:24:39.270Z,65.58
2016-11-02T06:25:39.292Z,66.44
2016-11-02T06:26:39.628Z,66.16
2016-11-02T06:27:39.647Z,66.16
2016-11-02T06:28:39.673Z,66.16
2016-11-02T06:29:39.375Z,66.06
2016-11-02T06:30:39.393Z,65.97
2016-11-02T06:31:39.412Z,66.25
2016-11-02T06:32:39.444Z,66.44
2016-11-02T06:33:39.451Z,66.92
2016-11-02T06:34:39.474Z,66.44
2016-11-02T06:35:39.492Z,66.54
2016-11-02T06:36:39.513Z,66.73
2016-11-02T06:37:39.535Z,66.63
2016-11-02T06:38:39.872Z,66.92
2016-11-02T06:39:39.891Z,67.02
2016-11-02T06:40:39.592Z,66.99
2016-11-02T06:41:39.931Z,67.3
2016-11-02T06:42:39.950Z,66.83
2016-11-02T06:43:39.968Z,67.02
2016-11-02T06:44:39.695Z,66.63
2016-11-02T06:45:40.022Z,67.02
2016-11-02T06:46:39.715Z,67.02
2016-11-02T06:47:39.738Z,66.83
2016-11-02T06:48:39.756Z,66.54
2016-11-02T06:49:39.773Z,67.11
2016-11-02T06:50:39.791Z,66.16
2016-11-02T06:51:40.131Z,66.63
2016-11-02T06:52:40.163Z,65.97
2016-11-02T06:53:39.858Z,66.16
2016-11-02T06:54:40.189Z,66.35
2016-11-02T06:55:40.223Z,66.16
2016-11-02T06:56:39.914Z,66.06
2016-11-02T06:57:40.248Z,65.77
2016-11-02T06:58:40.272Z,66.16
2016-11-02T06:59:40.294Z,65.77
2016-11-02T07:00:39.996Z,65.97
2016-11-02T07:01:40.014Z,66.06
2016-11-02T07:02:40.040Z,65.77
2016-11-02T07:03:40.380Z,66.35
2016-11-02T07:04:40.076Z,66.25
2016-11-02T07:05:40.411Z,66.44
2016-11-02T07:06:40.119Z,66.06
2016-11-02T07:07:40.145Z,66.06
2016-11-02T07:08:40.472Z,65.77
2016-11-02T07:09:40.502Z,65.97
2016-11-02T07:10:40.199Z,66.06
2016-11-02T07:11:40.217Z,65.39
2016-11-02T07:12:40.556Z,66.16
2016-11-02T07:13:40.260Z,66.06
2016-11-02T07:14:40.596Z,65.87
2016-11-02T07:15:40.616Z,65.2
2016-11-02T07:16:40.324Z,65.01
2016-11-02T07:17:40.341Z,65.3
2016-11-02T07:18:40.362Z,65.48
2016-11-02T07:19:40.540Z,65.3
2016-11-02T07:20:40.401Z,65.97
2016-11-02T07:21:40.739Z,65.97
2016-11-02T07:22:40.756Z,65.2
2016-11-02T07:23:40.777Z,65.48
2016-11-02T07:24:40.482Z,65.39
2016-11-02T07:25:40.820Z,64.82
2016-11-02T07:26:40.526Z,64.72
2016-11-02T07:27:40.858Z,64.91
2016-11-02T07:28:40.570Z,64.82
2016-11-02T07:29:40.901Z,64.72
2016-11-02T07:30:40.604Z,65.01
2016-11-02T07:31:40.637Z,65.01
2016-11-02T07:32:40.963Z,64.34
2016-11-02T07:33:41.002Z,64.43
2016-11-02T07:34:40.686Z,64.91
2016-11-02T07:35:41.024Z,64.62
2016-11-02T07:36:40.728Z,64.62
2016-11-02T07:37:40.751Z,64.62
2016-11-02T07:38:41.093Z,64.62
2016-11-02T07:39:40.789Z,64.43
2016-11-02T07:40:41.124Z,63.86
2016-11-02T07:41:41.161Z,64.34
2016-11-02T07:42:41.166Z,63.86
2016-11-02T07:43:41.191Z,64.15
2016-11-02T07:44:41.206Z,64.53
2016-11-02T07:45:40.911Z,64.43
2016-11-02T07:46:41.247Z,64.05
2016-11-02T07:47:40.953Z,63.76
2016-11-02T07:48:41.294Z,63.86
2016-11-02T07:49:40.992Z,63.96
2016-11-02T07:50:41.045Z,63.86
2016-11-02T07:51:41.359Z,64.62
2016-11-02T07:52:41.054Z,64.53
2016-11-02T07:53:41.390Z,64.15
2016-11-02T07:54:41.414Z,64.43
2016-11-02T07:55:41.115Z,64.34
2016-11-02T07:56:41.135Z,64.05
2016-11-02T07:57:41.157Z,64.34
2016-11-02T07:58:41.178Z,63.96
2016-11-02T07:59:41.512Z,64.15
2016-11-02T08:00:41.218Z,64.34
2016-11-02T08:01:41.260Z,64.34
2016-11-02T08:02:41.298Z,63.7
2016-11-02T08:03:41.595Z,63.67
2016-11-02T08:04:41.618Z,63.67
2016-11-02T08:05:41.324Z,63.39
2016-11-02T08:06:41.343Z,64.25
2016-11-02T08:07:41.678Z,63.48
2016-11-02T08:08:41.700Z,63.29
2016-11-02T08:09:41.718Z,63.48
2016-11-02T08:10:41.738Z,63.48
2016-11-02T08:11:41.443Z,63.19
2016-11-02T08:12:41.781Z,63.48
2016-11-02T08:13:41.483Z,63.1
2016-11-02T08:14:41.820Z,63.23
2016-11-02T08:15:41.530Z,63.39
2016-11-02T08:16:41.547Z,63.13
2016-11-02T08:17:41.566Z,63.42
2016-11-02T08:18:41.903Z,63.03
2016-11-02T08:19:41.608Z,63.19
2016-11-02T08:20:41.957Z,62.9
2016-11-02T08:21:41.962Z,63.29
2016-11-02T08:22:41.667Z,62.9
2016-11-02T08:23:41.690Z,62.94
2016-11-02T08:24:42.026Z,62.37
2016-11-02T08:25:42.046Z,62.74
2016-11-02T08:26:41.752Z,62.74
2016-11-02T08:27:42.090Z,63.23
2016-11-02T08:28:41.792Z,62.71
2016-11-02T08:29:42.130Z,63
2016-11-02T08:30:42.151Z,63
2016-11-02T08:31:41.859Z,62.74
2016-11-02T08:32:42.187Z,62.55
2016-11-02T08:33:42.211Z,62.43
2016-11-02T08:34:42.234Z,62.65
2016-11-02T08:35:41.937Z,62.74
2016-11-02T08:36:42.272Z,62.43
2016-11-02T08:37:41.980Z,62.9
2016-11-02T08:38:42.004Z,62.62
2016-11-02T08:39:42.040Z,62.84
2016-11-02T08:40:42.355Z,63.03
2016-11-02T08:41:42.061Z,62.65
2016-11-02T08:42:42.396Z,62.84
2016-11-02T08:43:42.101Z,62.46
2016-11-02T08:44:42.121Z,62.08
2016-11-02T08:45:42.458Z,62.27
2016-11-02T08:46:42.163Z,62.27
2016-11-02T08:47:42.197Z,62.17
2016-11-02T08:48:42.518Z,62.46
2016-11-02T08:49:42.561Z,62.74
2016-11-02T08:50:42.244Z,62.65
2016-11-02T08:51:42.265Z,62.08
2016-11-02T08:52:42.296Z,62.37
2016-11-02T08:53:42.627Z,62.46
2016-11-02T08:54:42.326Z,62.37
2016-11-02T08:55:42.664Z,62.46
2016-11-02T08:56:42.686Z,62.27
2016-11-02T08:57:42.718Z,62.55
2016-11-02T08:58:42.410Z,62.84
2016-11-02T08:59:42.747Z,62.46
2016-11-02T09:00:42.770Z,62.74
2016-11-02T09:01:42.469Z,62.27
2016-11-02T09:02:42.499Z,62.37
2016-11-02T09:03:42.515Z,62.17
2016-11-02T09:04:42.533Z,62.37
2016-11-02T09:05:42.552Z,62.55
2016-11-02T09:06:42.891Z,62.27
2016-11-02T09:07:42.912Z,62.37
2016-11-02T09:08:42.933Z,62.37
2016-11-02T09:09:42.951Z,62.08
2016-11-02T09:10:42.973Z,62.27
2016-11-02T09:11:42.676Z,62.37
2016-11-02T09:12:42.696Z,62.84
2016-11-02T09:13:42.717Z,62.84
2016-11-02T09:14:42.740Z,62.65
2016-11-02T09:15:43.073Z,63.39
2016-11-02T09:16:43.096Z,63.76
2016-11-02T09:17:42.816Z,63.48
2016-11-02T09:18:43.137Z,63.57
2016-11-02T09:19:42.844Z,64.37
2016-11-02T09:20:43.182Z,64.47
2016-11-02T09:21:43.200Z,64.56
2016-11-02T09:22:43.223Z,64.18
2016-11-02T09:23:42.924Z,63.99
2016-11-02T09:24:43.283Z,64.28
2016-11-02T09:25:43.281Z,64.72
2016-11-02T09:26:43.301Z,64.91
2016-11-02T09:27:43.008Z,65.39
2016-11-02T09:28:43.346Z,65.01
2016-11-02T09:29:43.058Z,65.97
2016-11-02T09:30:43.382Z,66.54
2016-11-02T09:31:43.406Z,65.97
2016-11-02T09:32:43.425Z,65.97
2016-11-02T09:33:43.135Z,65.97
2016-11-02T09:34:43.466Z,66.25
2016-11-02T09:35:43.177Z,66.73
2016-11-02T09:36:43.506Z,66.92
2016-11-02T09:37:43.529Z,66.73
2016-11-02T09:38:43.236Z,66.83
2016-11-02T09:39:43.261Z,66.16
2016-11-02T09:40:43.275Z,66.83
2016-11-02T09:41:43.293Z,66.92
2016-11-02T09:42:43.635Z,66.25
2016-11-02T09:43:43.334Z,65.87
2016-11-02T09:44:43.672Z,66.92
2016-11-02T09:45:43.690Z,67.3
2016-11-02T09:46:43.394Z,67.02
2016-11-02T09:47:43.734Z,67.02
2016-11-02T09:48:43.439Z,66.35
2016-11-02T09:49:43.456Z,66.73
2016-11-02T09:50:43.795Z,66.63
2016-11-02T09:51:43.815Z,66.16
2016-11-02T09:52:43.834Z,65.97
2016-11-02T09:53:43.541Z,66.73
2016-11-02T09:54:43.560Z,66.35
2016-11-02T09:55:43.897Z,65.97
2016-11-02T09:56:43.598Z,66.35
2016-11-02T09:57:43.651Z,65.2
2016-11-02T09:58:43.956Z,65.68
2016-11-02T09:59:43.661Z,65.77
2016-11-02T10:00:43.683Z,66.16
2016-11-02T10:01:44.017Z,66.92
2016-11-02T10:02:43.722Z,66.25
2016-11-02T10:03:43.756Z,66.06
2016-11-02T10:04:44.078Z,65.3
2016-11-02T10:05:43.782Z,65.2
2016-11-02T10:06:43.803Z,65.11
2016-11-02T10:07:44.142Z,65.87
2016-11-02T10:08:44.169Z,65.48
2016-11-02T10:09:43.875Z,65.3
2016-11-02T10:10:44.201Z,65.39
2016-11-02T10:11:44.220Z,65.3
2016-11-02T10:12:44.240Z,65.68
2016-11-02T10:13:44.278Z,65.48
2016-11-02T10:14:43.963Z,66.16
2016-11-02T10:15:43.985Z,66.44
2016-11-02T10:16:44.004Z,66.35
2016-11-02T10:17:44.342Z,66.35
2016-11-02T10:18:44.049Z,66.83
2016-11-02T10:19:44.067Z,66.83
2016-11-02T10:20:44.403Z,65.87
2016-11-02T10:21:44.424Z,65.39
2016-11-02T10:22:44.128Z,64.34
2016-11-02T10:23:44.476Z,64.25
2016-11-02T10:24:44.170Z,64.53
2016-11-02T10:25:44.189Z,65.01
2016-11-02T10:26:44.212Z,64.72
2016-11-02T10:27:44.548Z,64.59
2016-11-02T10:28:44.249Z,64.88
2016-11-02T10:29:44.583Z,64.62
2016-11-02T10:30:44.291Z,63.64
2016-11-02T10:31:44.313Z,64.5
2016-11-02T10:32:44.331Z,64.88
2016-11-02T10:33:44.664Z,64.78
2016-11-02T10:34:44.686Z,65.52
2016-11-02T10:35:44.392Z,64.31
2016-11-02T10:36:44.726Z,64.94
2016-11-02T10:37:44.432Z,65.04
2016-11-02T10:38:44.766Z,65.14
2016-11-02T10:39:44.473Z,65.52
2016-11-02T10:40:44.493Z,66.28
2016-11-02T10:41:44.511Z,66.09
2016-11-02T10:42:44.847Z,66.38
2016-11-02T10:43:44.549Z,66.19
2016-11-02T10:44:44.570Z,65.8
2016-11-02T10:45:44.907Z,65.04
2016-11-02T10:46:44.929Z,63.6
2016-11-02T10:47:44.651Z,64.09
2016-11-02T10:48:44.661Z,64.28
2016-11-02T10:49:44.677Z,63.99
2016-11-02T10:50:44.691Z,64.34
2016-11-02T10:51:45.024Z,64.72
2016-11-02T10:52:45.052Z,64.53
2016-11-02T10:53:44.750Z,64.34
2016-11-02T10:54:44.769Z,64.05
2016-11-02T10:55:44.859Z,63.86
2016-11-02T10:56:44.820Z,63.67
2016-11-02T10:57:45.145Z,64.81
2016-11-02T10:58:45.266Z,65.1
2016-11-02T10:59:44.867Z,65.2
2016-11-02T11:00:44.887Z,64.72
2016-11-02T11:01:45.221Z,64.78
2016-11-02T11:02:44.934Z,64.97
2016-11-02T11:03:44.945Z,65.26
2016-11-02T11:04:45.278Z,66.22
2016-11-02T11:05:45.296Z,66.02
2016-11-02T11:06:45.005Z,67.07
2016-11-02T11:07:45.024Z,65.83
2016-11-02T11:08:45.041Z,66.6
2016-11-02T11:09:45.059Z,66.88
2016-11-02T11:10:45.090Z,67.71
2016-11-02T11:11:45.104Z,67.52
2016-11-02T11:12:45.468Z,67.9
2016-11-02T11:13:45.138Z,67.71
2016-11-02T11:14:45.155Z,67.33
2016-11-02T11:15:45.296Z,68.66
2016-11-02T11:16:45.198Z,68.18
2016-11-02T11:17:45.536Z,68.66
2016-11-02T11:18:45.548Z,68.85
2016-11-02T11:19:45.577Z,69.43
2016-11-02T11:20:45.269Z,70.38
2016-11-02T11:21:45.287Z,71.14
2016-11-02T11:22:45.306Z,70.67
2016-11-02T11:23:45.638Z,69.43
2016-11-02T11:24:45.342Z,69.81
2016-11-02T11:25:45.688Z,69.71
2016-11-02T11:26:45.381Z,69.62
2016-11-02T11:27:45.715Z,70.38
2016-11-02T11:28:45.745Z,70.47
2016-11-02T11:29:45.754Z,70.57
2016-11-02T11:30:45.455Z,71.52
2016-11-02T11:31:45.790Z,70.95
2016-11-02T11:32:45.810Z,73.05
2016-11-02T11:33:45.518Z,72.19
2016-11-02T11:34:45.847Z,71.72
2016-11-02T11:35:45.547Z,72.09
2016-11-02T11:36:45.569Z,71.72
2016-11-02T11:37:45.904Z,71.33
2016-11-02T11:38:45.917Z,70.09
2016-11-02T11:39:45.939Z,70.34
2016-11-02T11:40:45.969Z,71.2
2016-11-02T11:41:45.665Z,71.2
2016-11-02T11:42:45.996Z,71.58
2016-11-02T11:43:46.027Z,71.68
2016-11-02T11:44:45.716Z,71.11
2016-11-02T11:45:46.051Z,71.77
2016-11-02T11:46:46.069Z,71.48
2016-11-02T11:47:46.093Z,71.01
2016-11-02T11:48:46.107Z,70.92
2016-11-02T11:49:45.805Z,71.77
2016-11-02T11:50:46.142Z,72.82
2016-11-02T11:51:46.159Z,72.16
2016-11-02T11:52:45.863Z,73.07
2016-11-02T11:53:45.882Z,72.41
2016-11-02T11:54:46.215Z,72.78
2016-11-02T11:55:46.254Z,72.97
2016-11-02T11:56:46.249Z,72.78
2016-11-02T11:57:46.267Z,73.21
2016-11-02T11:58:45.969Z,73.26
2016-11-02T11:59:46.306Z,73.83
2016-11-02T12:00:46.322Z,73.65
2016-11-02T12:01:46.341Z,73.55
2016-11-02T12:02:46.374Z,73.36
2016-11-02T12:03:46.070Z,75.36
2016-11-02T12:04:46.075Z,75.55
2016-11-02T12:05:46.096Z,75.36
2016-11-02T12:06:46.116Z,75.36
2016-11-02T12:07:46.130Z,74.6
2016-11-02T12:08:46.467Z,74.5
2016-11-02T12:09:46.168Z,74.12
2016-11-02T12:10:46.505Z,75.36
2016-11-02T12:11:46.227Z,75.36
2016-11-02T12:12:46.219Z,75.26
2016-11-02T12:13:46.559Z,74.5
2016-11-02T12:14:46.256Z,74.69
2016-11-02T12:15:46.593Z,76.5
2016-11-02T12:16:46.606Z,76.4
2016-11-02T12:17:46.310Z,76.88
2016-11-02T12:18:46.328Z,76.69
2016-11-02T12:19:46.348Z,73.93
2016-11-02T12:20:46.368Z,75.55
2016-11-02T12:21:46.697Z,76.27
2016-11-02T12:22:46.714Z,76.46
2016-11-02T12:23:46.729Z,76.56
2016-11-02T12:24:46.433Z,75.7
2016-11-02T12:25:46.452Z,76.27
2016-11-02T12:26:46.469Z,76.18
2016-11-02T12:27:46.803Z,76.18
2016-11-02T12:28:46.507Z,76.75
2016-11-02T12:29:46.835Z,76.56
2016-11-02T12:30:46.855Z,76.56
2016-11-02T12:31:46.875Z,76.27
2016-11-02T12:32:46.577Z,76.27
2016-11-02T12:33:46.591Z,76.75
2016-11-02T12:34:46.611Z,75.7
2016-11-02T12:35:46.628Z,76.08
2016-11-02T12:36:46.648Z,76.08
2016-11-02T12:37:46.975Z,76.27
2016-11-02T12:38:46.995Z,75.6
2016-11-02T12:39:46.701Z,76.37
2016-11-02T12:40:46.716Z,76.27
2016-11-02T12:41:47.047Z,77.32
2016-11-02T12:42:47.105Z,76.84
2016-11-02T12:43:47.094Z,76.56
2016-11-02T12:44:46.784Z,77.51
2016-11-02T12:45:46.802Z,77.7
2016-11-02T12:46:46.822Z,77.98
2016-11-02T12:47:46.846Z,78.17
2016-11-02T12:48:47.169Z,78.46
2016-11-02T12:49:46.870Z,79.13
2016-11-02T12:50:46.895Z,78.85
2016-11-02T12:51:46.907Z,79.13
2016-11-02T12:52:47.239Z,78.37
2016-11-02T12:53:47.256Z,77.7
2016-11-02T12:54:47.291Z,77.7
2016-11-02T12:55:46.979Z,78.27